createdAt,value
2018-09-18T00:03:16.082Z,100196.58
2018-09-18T00:07:19.724Z,100198.03
2018-09-18T00:11:24.361Z,100193.20
2018-09-18T00:15:27.978Z,100193.70
2018-09-18T00:19:31.564Z,100178.30
2018-09-18T00:23:35.263Z,100181.98
2018-09-18T00:27:38.973Z,100183.38
2018-09-18T00:31:42.796Z,100176.81
2018-09-18T00:35:46.470Z,100177.89
2018-09-18T00:39:50.016Z,100181.06
2018-09-18T00:43:53.854Z,100180.30
2018-09-18T00:47:57.375Z,100179.61
2018-09-18T00:52:01.152Z,100177.11
2018-09-18T00:56:04.684Z,100177.28
2018-09-18T01:00:08.326Z,100180.98
2018-09-18T01:04:11.947Z,100183.75
2018-09-18T01:08:15.532Z,100184.28
2018-09-18T01:12:19.162Z,100191.05
2018-09-18T01:16:22.778Z,100187.57
2018-09-18T01:20:26.350Z,100194.33
2018-09-18T01:24:29.904Z,100185.09
2018-09-18T01:28:33.615Z,100182.09
2018-09-18T01:32:37.517Z,100175.52
2018-09-18T01:36:41.418Z,100171.71
2018-09-18T01:40:47.999Z,100169.94
2018-09-18T01:44:51.635Z,100178.38
2018-09-18T01:48:56.409Z,100169.91
2018-09-18T01:53:00.078Z,100174.31
2018-09-18T01:57:03.845Z,100173.08
2018-09-18T02:01:07.539Z,100176.61
2018-09-18T02:05:12.141Z,100177.94
2018-09-18T02:09:15.612Z,100176.73
2018-09-18T02:13:19.271Z,100176.45
2018-09-18T02:17:23.167Z,100179.20
2018-09-18T02:21:26.723Z,100179.66
2018-09-18T02:25:31.427Z,100175.23
2018-09-18T02:29:35.049Z,100178.33
2018-09-18T02:33:38.832Z,100177.44
2018-09-18T02:37:42.555Z,100180.99
2018-09-18T02:41:46.202Z,100173.98
2018-09-18T02:45:49.912Z,100178.97
2018-09-18T02:49:54.893Z,100181.72
2018-09-18T02:53:58.470Z,100194.14
2018-09-18T02:58:02.102Z,100192.46
2018-09-18T03:02:05.723Z,100192.48
2018-09-18T03:06:09.961Z,100191.22
2018-09-18T03:10:13.581Z,100193.88
2018-09-18T03:14:18.391Z,100196.11
2018-09-18T03:18:22.979Z,100195.27
2018-09-18T03:22:26.626Z,100197.09
2018-09-18T03:26:30.246Z,100193.17
2018-09-18T03:30:33.852Z,100191.08
2018-09-18T03:34:37.610Z,100190.70
2018-09-18T03:38:41.570Z,100193.40
2018-09-18T03:42:45.220Z,100192.52
2018-09-18T03:46:51.001Z,100196.16
2018-09-18T03:50:54.513Z,100194.95
2018-09-18T03:54:58.117Z,100195.98
2018-09-18T03:59:01.862Z,100201.33
2018-09-18T04:03:05.427Z,100199.20
2018-09-18T04:07:09.026Z,100207.73
2018-09-18T04:11:12.642Z,100201.14
2018-09-18T04:15:16.432Z,100199.04
2018-09-18T04:19:20.090Z,100201.32
2018-09-18T04:23:23.937Z,100211.55
2018-09-18T04:27:27.553Z,100212.92
2018-09-18T04:31:31.225Z,100211.23
2018-09-18T04:35:34.803Z,100212.56
2018-09-18T04:39:38.580Z,100209.01
2018-09-18T04:43:42.102Z,100217.39
2018-09-18T04:48:06.104Z,100221.38
2018-09-18T04:52:10.184Z,100222.70
2018-09-18T04:56:14.047Z,100227.97
2018-09-18T05:00:17.724Z,100233.27
2018-09-18T05:04:21.638Z,100225.28
2018-09-18T05:08:25.237Z,100225.24
2018-09-18T05:12:28.874Z,100228.27
2018-09-18T05:16:32.672Z,100235.36
2018-09-18T05:20:36.871Z,100239.86
2018-09-18T05:24:40.471Z,100254.05
2018-09-18T05:28:44.190Z,100249.19
2018-09-18T05:32:47.823Z,100252.67
2018-09-18T05:36:51.358Z,100244.67
2018-09-18T05:40:55.116Z,100250.86
2018-09-18T05:44:58.751Z,100246.36
2018-09-18T05:49:03.922Z,100248.56
2018-09-18T05:53:08.161Z,100247.16
2018-09-18T05:57:11.748Z,100244.45
2018-09-18T06:01:15.260Z,100244.33
2018-09-18T06:05:18.818Z,100253.11
2018-09-18T06:09:22.483Z,100247.69
2018-09-18T06:13:26.050Z,100252.03
2018-09-18T06:17:29.536Z,100255.48
2018-09-18T06:21:33.054Z,100246.91
2018-09-18T06:25:37.699Z,100256.94
2018-09-18T06:29:41.283Z,100256.83
2018-09-18T06:33:45.881Z,100260.63
2018-09-18T06:37:49.666Z,100264.03
2018-09-18T06:41:53.494Z,100262.07
2018-09-18T06:45:56.954Z,100262.73
2018-09-18T06:50:00.490Z,100262.50
2018-09-18T06:54:04.037Z,100257.86
2018-09-18T06:58:07.513Z,100267.88
2018-09-18T07:02:11.302Z,100263.17
2018-09-18T07:06:14.795Z,100263.75
2018-09-18T07:10:18.386Z,100269.62
2018-09-18T07:14:22.038Z,100263.42
2018-09-18T07:18:25.630Z,100259.04
2018-09-18T07:22:30.338Z,100256.73
2018-09-18T07:26:33.891Z,100262.43
2018-09-18T07:30:37.586Z,100262.02
2018-09-18T07:34:41.280Z,100258.83
2018-09-18T07:38:45.032Z,100257.45
2018-09-18T07:42:48.475Z,100252.90
2018-09-18T07:46:52.026Z,100252.83
2018-09-18T07:50:55.427Z,100252.73
2018-09-18T07:54:59.031Z,100256.19
2018-09-18T07:59:03.198Z,100242.21
2018-09-18T08:03:06.892Z,100249.50
2018-09-18T08:07:10.556Z,100249.78
2018-09-18T08:11:14.240Z,100249.20
2018-09-18T08:15:17.706Z,100251.76
2018-09-18T08:19:21.346Z,100244.05
2018-09-18T08:23:24.864Z,100247.95
2018-09-18T08:27:28.639Z,100245.11
2018-09-18T08:31:32.166Z,100247.16
2018-09-18T08:35:35.818Z,100246.29
2018-09-18T08:39:39.578Z,100246.52
2018-09-18T08:43:43.362Z,100247.12
2018-09-18T08:47:46.945Z,100238.86
2018-09-18T08:51:51.668Z,100242.73
2018-09-18T08:55:55.556Z,100238.29
2018-09-18T09:00:01.565Z,100237.24
2018-09-18T09:04:05.017Z,100243.70
2018-09-18T09:08:09.414Z,100235.02
2018-09-18T09:12:12.734Z,100230.02
2018-09-18T09:16:16.555Z,100225.69
2018-09-18T09:20:20.069Z,100224.21
2018-09-18T09:24:24.874Z,100217.76
2018-09-18T09:28:28.402Z,100217.17
2018-09-18T09:32:32.190Z,100224.92
2018-09-18T09:36:35.702Z,100215.75
2018-09-18T09:40:39.155Z,100212.47
2018-09-18T09:44:42.663Z,100211.92
2018-09-18T09:48:46.192Z,100201.48
2018-09-18T09:52:50.075Z,100205.30
2018-09-18T09:56:53.641Z,100208.78
2018-09-18T10:01:02.446Z,100192.27
2018-09-18T10:05:06.023Z,100201.01
2018-09-18T10:09:11.594Z,100198.08
2018-09-18T10:13:15.052Z,100193.08
2018-09-18T10:17:18.591Z,100189.09
2018-09-18T10:21:22.166Z,100199.94
2018-09-18T10:25:25.797Z,100193.45
2018-09-18T10:29:29.485Z,100183.33
2018-09-18T10:33:33.028Z,100189.83
2018-09-18T10:37:36.681Z,100186.06
2018-09-18T10:41:41.408Z,100180.41
2018-09-18T10:45:46.037Z,100174.50
2018-09-18T10:49:49.527Z,100171.17
2018-09-18T10:53:53.075Z,100163.09
2018-09-18T10:57:56.597Z,100165.16
2018-09-18T11:02:00.241Z,100166.02
2018-09-18T11:06:03.877Z,100165.05
2018-09-18T11:10:07.778Z,100168.77
2018-09-18T11:14:12.767Z,100168.41
2018-09-18T11:18:16.564Z,100159.41
2018-09-18T11:22:20.123Z,100157.70
2018-09-18T11:26:23.542Z,100146.70
2018-09-18T11:30:27.247Z,100143.02
2018-09-18T11:34:31.813Z,100148.92
2018-09-18T11:38:35.300Z,100148.47
2018-09-18T11:42:38.848Z,100151.48
2018-09-18T11:46:42.531Z,100149.45
2018-09-18T11:50:46.098Z,100146.38
2018-09-18T11:54:49.849Z,100135.65
2018-09-18T11:58:54.683Z,100131.59
2018-09-18T12:02:58.242Z,100135.37
2018-09-18T12:07:01.788Z,100135.55
2018-09-18T12:11:05.356Z,100125.89
2018-09-18T12:15:08.894Z,100125.30
2018-09-18T12:19:12.354Z,100128.19
2018-09-18T12:23:16.016Z,100121.82
2018-09-18T12:27:19.782Z,100123.16
2018-09-18T12:31:23.291Z,100122.08
2018-09-18T12:35:27.008Z,100110.79
2018-09-18T12:39:30.452Z,100110.39
2018-09-18T12:43:34.167Z,100098.22
2018-09-18T12:47:37.647Z,100103.64
2018-09-18T12:51:41.247Z,100088.37
2018-09-18T12:55:45.734Z,100095.69
2018-09-18T12:59:49.364Z,100094.45
2018-09-18T13:03:53.941Z,100084.61
2018-09-18T13:07:58.020Z,100090.52
2018-09-18T13:12:01.657Z,100074.84
2018-09-18T13:16:05.254Z,100073.48
2018-09-18T13:20:08.825Z,100076.49
2018-09-18T13:24:12.415Z,100068.47
2018-09-18T13:28:15.907Z,100065.77
2018-09-18T13:32:19.520Z,100060.84
2018-09-18T13:36:23.072Z,100061.70
2018-09-18T13:40:26.642Z,100063.25
2018-09-18T13:44:30.113Z,100065.59
2018-09-18T13:48:34.187Z,100058.04
2018-09-18T13:52:38.918Z,100058.72
2018-09-18T13:56:42.580Z,100055.34
2018-09-18T14:00:46.169Z,100052.80
2018-09-18T14:04:50.090Z,100053.98
2018-09-18T14:08:53.820Z,100052.44
2018-09-18T14:12:57.814Z,100056.69
2018-09-18T14:17:01.395Z,100050.20
2018-09-18T14:21:05.056Z,100050.97
2018-09-18T14:25:08.614Z,100049.12
2018-09-18T14:29:12.330Z,100042.59
2018-09-18T14:33:15.850Z,100048.55
2018-09-18T14:37:19.491Z,100047.20
2018-09-18T14:41:23.031Z,100045.27
2018-09-18T14:45:26.574Z,100046.33
2018-09-18T14:49:30.149Z,100044.30
2018-09-18T14:53:33.612Z,100051.33
2018-09-18T14:57:37.190Z,100042.52
2018-09-18T15:01:40.911Z,100045.20
2018-09-18T15:05:44.463Z,100043.35
2018-09-18T15:09:47.993Z,100044.11
2018-09-18T15:13:51.549Z,100043.80
2018-09-18T15:17:55.137Z,100051.70
2018-09-18T15:21:58.818Z,100044.08
2018-09-18T15:26:03.946Z,100031.41
2018-09-18T15:30:07.733Z,100042.88
2018-09-18T15:34:11.421Z,100046.33
2018-09-18T15:38:14.950Z,100052.17
2018-09-18T15:42:18.684Z,100047.14
2018-09-18T15:46:22.380Z,100044.09
2018-09-18T15:50:25.952Z,100046.87
2018-09-18T15:54:29.778Z,100041.86
2018-09-18T15:58:33.406Z,100040.47
2018-09-18T16:02:38.287Z,100030.87
2018-09-18T16:06:41.831Z,100030.47
2018-09-18T16:10:46.514Z,100036.20
2018-09-18T16:14:50.162Z,100031.95
2018-09-18T16:18:53.731Z,100040.87
2018-09-18T16:22:57.499Z,100034.54
2018-09-18T16:27:03.159Z,100041.16
2018-09-18T16:31:06.878Z,100037.97
2018-09-18T16:35:10.471Z,100037.55
2018-09-18T16:39:14.231Z,100038.84
2018-09-18T16:43:17.996Z,100036.26
2018-09-18T16:47:21.449Z,100033.51
2018-09-18T16:51:25.228Z,100029.48
2018-09-18T16:55:28.728Z,100042.01
2018-09-18T16:59:32.399Z,100034.88
2018-09-18T17:08:01.877Z,100043.66
2018-09-18T17:12:06.373Z,100042.31
2018-09-18T17:16:09.864Z,100048.19
2018-09-18T17:20:13.626Z,100049.53
2018-09-18T17:24:17.272Z,100054.61
2018-09-18T17:28:20.932Z,100052.05
2018-09-18T17:32:24.517Z,100051.00
2018-09-18T17:36:28.740Z,100061.05
2018-09-18T17:40:32.512Z,100058.68
2018-09-18T17:44:36.403Z,100062.97
2018-09-18T17:48:40.039Z,100062.47
2018-09-18T17:52:43.829Z,100073.54
2018-09-18T17:56:48.147Z,100075.30
2018-09-18T18:00:54.548Z,100071.58
2018-09-18T18:04:58.331Z,100081.34
2018-09-18T18:09:02.294Z,100077.68
2018-09-18T18:13:06.463Z,100082.88
2018-09-18T18:17:10.242Z,100081.73
2018-09-18T18:21:14.125Z,100080.83
2018-09-18T18:25:17.805Z,100080.75
2018-09-18T18:29:22.220Z,100082.42
2018-09-18T18:33:26.128Z,100087.67
2018-09-18T18:37:29.940Z,100085.66
2018-09-18T18:41:34.535Z,100090.37
2018-09-18T18:45:38.245Z,100092.06
2018-09-18T18:49:41.931Z,100095.97
2018-09-18T18:53:45.533Z,100098.84
2018-09-18T18:57:49.132Z,100097.36
2018-09-18T19:01:52.972Z,100102.54
2018-09-18T19:05:57.526Z,100098.76
2018-09-18T19:10:01.455Z,100099.00
2018-09-18T19:14:05.012Z,100101.11
2018-09-18T19:18:08.837Z,100101.64
2018-09-18T19:22:12.569Z,100114.80
2018-09-18T19:26:16.356Z,100119.14
2018-09-18T19:30:20.026Z,100112.41
2018-09-18T19:34:23.969Z,100108.56
2018-09-18T19:38:27.617Z,100110.20
2018-09-18T19:42:31.504Z,100111.75
2018-09-18T19:46:35.158Z,100118.70
2018-09-18T19:50:38.900Z,100118.91
2018-09-18T19:54:42.557Z,100121.34
2018-09-18T19:58:46.507Z,100122.14
2018-09-18T20:02:50.052Z,100123.17
2018-09-18T20:06:53.847Z,100118.83
2018-09-18T20:10:57.440Z,100117.54
2018-09-18T20:15:01.553Z,100124.36
2018-09-18T20:19:05.376Z,100120.17
2018-09-18T20:23:09.400Z,100124.92
2018-09-18T20:27:12.927Z,100122.34
2018-09-18T20:31:17.219Z,100122.49
2018-09-18T20:35:20.768Z,100128.02
2018-09-18T20:39:25.484Z,100129.52
2018-09-18T20:43:29.082Z,100133.74
2018-09-18T20:47:32.741Z,100118.63
2018-09-18T20:51:36.226Z,100121.95
2018-09-18T20:55:40.138Z,100124.41
2018-09-18T20:59:43.658Z,100126.85
2018-09-18T21:03:47.679Z,100126.73
2018-09-18T21:07:51.294Z,100128.70
2018-09-18T21:11:55.144Z,100131.00
2018-09-18T21:15:58.611Z,100122.40
2018-09-18T21:20:02.562Z,100125.56
2018-09-18T21:24:06.034Z,100120.89
2018-09-18T21:28:09.963Z,100123.40
2018-09-18T21:32:13.467Z,100131.23
2018-09-18T21:36:17.285Z,100124.16
2018-09-18T21:40:20.899Z,100126.98
2018-09-18T21:44:24.920Z,100141.46
2018-09-18T21:48:28.716Z,100126.84
2018-09-18T21:52:33.467Z,100129.70
2018-09-18T21:56:37.507Z,100129.51
2018-09-18T22:05:07.214Z,100133.84
2018-09-18T22:09:11.193Z,100132.91
2018-09-18T22:13:14.771Z,100132.33
2018-09-18T22:17:18.560Z,100138.89
2018-09-18T22:21:22.026Z,100136.02
2018-09-18T22:25:26.990Z,100147.78
2018-09-18T22:29:30.555Z,100145.58
2018-09-18T22:33:34.282Z,100147.92
2018-09-18T22:37:37.771Z,100157.01
2018-09-18T22:41:41.597Z,100154.54
2018-09-18T22:45:45.270Z,100149.23
2018-09-18T22:49:49.448Z,100145.40
2018-09-18T22:53:53.207Z,100143.05
2018-09-18T22:57:56.813Z,100143.97
2018-09-18T23:02:00.513Z,100141.54
2018-09-18T23:06:05.632Z,100140.08
2018-09-18T23:10:09.276Z,100136.78
2018-09-18T23:14:13.229Z,100137.56
2018-09-18T23:18:16.789Z,100137.70
2018-09-18T23:22:20.698Z,100146.30
2018-09-18T23:26:24.397Z,100144.21
2018-09-18T23:30:28.128Z,100139.52
2018-09-18T23:34:31.571Z,100139.31
2018-09-18T23:38:35.343Z,100136.34
2018-09-18T23:42:38.925Z,100146.59
2018-09-18T23:46:42.675Z,100141.69
2018-09-18T23:50:46.288Z,100147.85
2018-09-18T23:54:50.907Z,100143.09
2018-09-18T23:58:54.786Z,100149.94
